Time;durP1;ratioP1;P1;durP2;ratioP2;P2;SDS_P1;SDS_P2;PMS_P1;PMS_P2;Temp;Humidity;BMP_temperature;BMP_pressure;BME280_temperature;BME280_humidity;BME280_pressure;Samples;Min_cycle;Max_cycle;Signal;HPM_P1;HPM_P2
2023/06/03 00:01:32;;;;;;;4.68;2.10;;;13.20;99.90;;;;;;5051101;28;20025;-55
2023/06/03 00:03:58;;;;;;;6.20;2.15;;;13.20;99.90;;;;;;5051306;28;20053;-54
2023/06/03 00:06:24;;;;;;;7.80;2.25;;;13.20;99.90;;;;;;5050927;28;20041;-54
2023/06/03 00:08:50;;;;;;;6.50;2.78;;;13.10;99.90;;;;;;5051139;28;20021;-57
2023/06/03 00:11:16;;;;;;;5.57;2.75;;;13.20;99.90;;;;;;5050864;28;20540;-56
2023/06/03 00:13:42;;;;;;;4.97;1.92;;;13.10;99.90;;;;;;5050810;28;20048;-56
2023/06/03 00:16:08;;;;;;;5.72;2.20;;;13.10;99.90;;;;;;5050899;28;20112;-56
2023/06/03 00:18:33;;;;;;;4.90;2.33;;;13.10;99.90;;;;;;5050888;28;20425;-52
2023/06/03 00:21:01;;;;;;;6.25;2.50;;;13.10;99.90;;;;;;5050735;28;20155;-54
2023/06/03 00:23:27;;;;;;;6.22;2.60;;;13.00;99.90;;;;;;5050898;28;20032;-54
2023/06/03 00:25:53;;;;;;;5.20;2.15;;;13.00;99.90;;;;;;5050794;28;20059;-55
2023/06/03 00:28:19;;;;;;;8.87;2.47;;;13.00;99.90;;;;;;5050903;28;20044;-53
2023/06/03 00:30:45;;;;;;;4.95;2.40;;;13.00;99.90;;;;;;5050440;28;20064;-56
2023/06/03 00:33:11;;;;;;;5.60;2.75;;;13.00;99.90;;;;;;5050645;28;20064;-55
2023/06/03 00:35:37;;;;;;;5.57;2.45;;;12.90;99.90;;;;;;5032712;28;20036;-56
2023/06/03 00:38:03;;;;;;;5.20;2.35;;;12.90;99.90;;;;;;5051038;28;20029;-51
2023/06/03 00:40:29;;;;;;;5.80;2.00;;;12.90;99.90;;;;;;5050546;28;20040;-52
2023/06/03 00:42:54;;;;;;;5.67;2.27;;;12.90;99.90;;;;;;5032561;28;20087;-55
2023/06/03 00:45:20;;;;;;;6.63;2.50;;;12.80;99.90;;;;;;5031927;28;20416;-52
2023/06/03 00:47:47;;;;;;;7.57;2.78;;;12.80;99.90;;;;;;5032691;28;20033;-55
2023/06/03 00:50:14;;;;;;;6.43;3.03;;;12.80;99.90;;;;;;5032569;28;20036;-53
2023/06/03 00:52:41;;;;;;;9.30;2.37;;;12.80;99.90;;;;;;5050563;28;20545;-56
2023/06/03 00:55:07;;;;;;;5.03;2.60;;;12.70;99.90;;;;;;5050284;28;20069;-55
2023/06/03 00:57:33;;;;;;;6.18;2.53;;;12.70;99.90;;;;;;5032697;28;20033;-53
2023/06/03 00:59:59;;;;;;;7.63;2.43;;;12.70;99.90;;;;;;5032447;28;20056;-54
2023/06/03 01:02:25;;;;;;;6.03;2.35;;;12.70;99.90;;;;;;5050302;28;20021;-53
2023/06/03 01:04:51;;;;;;;5.40;2.53;;;12.70;99.90;;;;;;5032334;28;20127;-52
2023/06/03 01:07:28;;;;;;;7.57;3.63;;;12.60;99.90;;;;;;5050545;28;20044;-52
2023/06/03 01:10:13;;;;;;;5.50;2.80;;;12.60;99.90;;;;;;5032537;28;20049;-55
2023/06/03 01:13:10;;;;;;;5.07;2.63;;;12.60;99.90;;;;;;5050238;28;20028;-53
2023/06/03 01:15:40;;;;;;;5.43;2.10;;;12.60;99.90;;;;;;5032436;28;20037;-56
2023/06/03 01:18:06;;;;;;;11.27;2.67;;;12.60;99.90;;;;;;5032638;28;20053;-53
2023/06/03 01:20:33;;;;;;;5.63;2.57;;;12.60;99.90;;;;;;5050217;28;20025;-56
2023/06/03 01:23:33;;;;;;;6.87;2.57;;;12.60;99.90;;;;;;5032518;28;20554;-55
2023/06/03 01:26:00;;;;;;;6.03;2.43;;;12.60;99.90;;;;;;5050249;28;20041;-56
2023/06/03 01:28:28;;;;;;;7.50;2.90;;;12.60;99.90;;;;;;5050578;28;20482;-56
2023/06/03 01:30:58;;;;;;;9.47;2.70;;;12.60;99.90;;;;;;5032193;28;20450;-56
2023/06/03 01:33:28;;;;;;;4.70;2.23;;;12.60;99.90;;;;;;5032310;28;20025;-55
2023/06/03 01:35:55;;;;;;;8.30;3.03;;;12.50;99.90;;;;;;5049962;28;20033;-56
2023/06/03 01:38:23;;;;;;;6.93;2.30;;;12.50;99.90;;;;;;5032240;28;20025;-56
2023/06/03 01:40:53;;;;;;;6.30;3.30;;;12.50;99.90;;;;;;5031850;28;20401;-56
2023/06/03 01:43:19;;;;;;;5.43;2.80;;;12.50;99.90;;;;;;5032136;28;20028;-57
2023/06/03 01:45:46;;;;;;;5.00;2.60;;;12.50;99.90;;;;;;5031874;28;20025;-57
2023/06/03 01:48:13;;;;;;;6.77;3.27;;;12.50;99.90;;;;;;5032048;28;20454;-56
2023/06/03 01:50:44;;;;;;;6.87;3.03;;;12.50;99.90;;;;;;5031799;28;20044;-53
2023/06/03 01:53:14;;;;;;;6.20;3.03;;;12.50;99.90;;;;;;5032060;28;20029;-52
2023/06/03 01:55:41;;;;;;;5.18;2.53;;;12.40;99.90;;;;;;5032720;28;20021;-55
2023/06/03 01:58:07;;;;;;;8.67;3.40;;;12.40;99.90;;;;;;5035666;28;20378;-55
2023/06/03 02:00:33;;;;;;;4.73;2.80;;;12.40;99.90;;;;;;5035453;28;20029;-56
2023/06/03 02:02:59;;;;;;;6.83;3.30;;;12.40;99.90;;;;;;5053523;28;20021;-56
2023/06/03 02:05:25;;;;;;;6.53;3.00;;;12.40;99.90;;;;;;5053418;28;20143;-56
2023/06/03 02:07:50;;;;;;;9.33;3.30;;;12.30;99.90;;;;;;5053708;28;20102;-55
2023/06/03 02:10:16;;;;;;;8.80;3.33;;;12.30;99.90;;;;;;5035282;28;20037;-55
2023/06/03 02:12:42;;;;;;;7.07;3.17;;;12.30;99.90;;;;;;5035408;28;20033;-56
2023/06/03 02:15:15;;;;;;;8.13;2.93;;;12.20;99.90;;;;;;5035196;28;20501;-55
2023/06/03 02:17:41;;;;;;;8.10;3.03;;;12.20;99.90;;;;;;5035567;28;20036;-53
2023/06/03 02:20:08;;;;;;;7.70;3.30;;;12.20;99.90;;;;;;5035353;28;20124;-57
2023/06/03 02:22:34;;;;;;;6.50;2.77;;;12.20;99.90;;;;;;5053529;28;20055;-56
2023/06/03 02:25:00;;;;;;;6.33;2.70;;;12.20;99.90;;;;;;5053068;28;20048;-55
2023/06/03 02:27:28;;;;;;;5.83;2.97;;;12.20;99.90;;;;;;5035312;28;20048;-55
2023/06/03 02:29:54;;;;;;;7.77;3.57;;;12.20;99.90;;;;;;5052955;28;20537;-56
2023/06/03 02:32:20;;;;;;;5.97;2.87;;;12.10;99.90;;;;;;5035112;28;20045;-57
2023/06/03 02:34:50;;;;;;;5.90;2.93;;;12.10;99.90;;;;;;5034845;28;20059;-54
2023/06/03 02:37:17;;;;;;;7.57;3.43;;;12.10;99.90;;;;;;5053043;28;20083;-56
2023/06/03 02:39:43;;;;;;;5.17;2.83;;;12.10;99.90;;;;;;5034911;28;20032;-56
2023/06/03 02:42:10;;;;;;;5.30;3.17;;;12.00;99.90;;;;;;5034673;28;20124;-57
2023/06/03 02:44:36;;;;;;;7.50;3.03;;;12.00;99.90;;;;;;5034680;28;20116;-55
2023/06/03 02:47:03;;;;;;;9.20;3.40;;;11.90;99.90;;;;;;5035210;28;20062;-56
2023/06/03 02:49:29;;;;;;;7.37;3.47;;;11.90;99.90;;;;;;5034792;28;20059;-56
2023/06/03 02:51:55;;;;;;;7.13;3.40;;;11.90;99.90;;;;;;5052353;28;20021;-57
2023/06/03 02:54:20;;;;;;;6.80;3.27;;;11.90;99.90;;;;;;5052469;28;20112;-54
2023/06/03 02:56:46;;;;;;;7.47;3.53;;;11.90;99.90;;;;;;5052446;28;20017;-57
2023/06/03 02:59:12;;;;;;;7.50;2.83;;;11.80;99.90;;;;;;5052492;28;20044;-55
2023/06/03 03:01:38;;;;;;;9.27;3.03;;;11.80;99.90;;;;;;5034415;28;20033;-56
2023/06/03 03:04:04;;;;;;;7.17;2.70;;;11.80;99.90;;;;;;5034717;28;20029;-55
2023/06/03 03:06:30;;;;;;;4.27;2.70;;;11.80;99.90;;;;;;5052335;28;20029;-55
2023/06/03 03:08:55;;;;;;;9.40;2.97;;;11.70;99.90;;;;;;5051832;28;20029;-54
2023/06/03 03:11:25;;;;;;;8.50;3.30;;;11.70;99.90;;;;;;5034029;28;20028;-57
2023/06/03 03:13:51;;;;;;;5.53;2.80;;;11.70;99.90;;;;;;5034421;28;20393;-56
2023/06/03 03:16:18;;;;;;;5.83;2.50;;;11.70;99.90;;;;;;5034043;28;20437;-55
2023/06/03 03:18:47;;;;;;;6.00;2.97;;;11.70;99.90;;;;;;5034411;28;20116;-55
2023/06/03 03:21:14;;;;;;;5.13;2.80;;;11.70;99.90;;;;;;5033989;28;20440;-55
2023/06/03 03:23:40;;;;;;;5.43;2.70;;;11.60;99.90;;;;;;5051971;28;20036;-55
2023/06/03 03:26:08;;;;;;;7.37;2.93;;;11.60;99.90;;;;;;5052305;28;20060;-54
2023/06/03 03:28:35;;;;;;;7.13;2.93;;;11.60;99.90;;;;;;5034479;28;20392;-55
2023/06/03 03:31:04;;;;;;;5.50;2.50;;;11.60;99.90;;;;;;5033657;28;20551;-54
2023/06/03 03:33:31;;;;;;;7.03;2.65;;;11.60;99.90;;;;;;5034023;28;20029;-56
2023/06/03 03:36:08;;;;;;;4.60;2.23;;;11.50;99.90;;;;;;5033874;28;20029;-56
2023/06/03 03:38:37;;;;;;;6.63;2.87;;;11.50;99.90;;;;;;5034127;28;20386;-55
2023/06/03 03:41:04;;;;;;;5.40;2.57;;;11.50;99.90;;;;;;5033951;28;20053;-54
2023/06/03 03:43:31;;;;;;;6.57;3.50;;;11.50;99.90;;;;;;5034048;28;20291;-57
2023/06/03 03:45:57;;;;;;;7.00;2.37;;;11.40;99.90;;;;;;5033757;28;20028;-56
2023/06/03 03:48:27;;;;;;;6.83;2.83;;;11.40;99.90;;;;;;5033713;28;20025;-54
2023/06/03 03:50:54;;;;;;;5.13;2.43;;;11.40;99.90;;;;;;5033479;28;20086;-55
2023/06/03 03:53:47;;;;;;;6.27;2.77;;;11.40;99.90;;;;;;5051047;28;20039;-55
2023/06/03 03:56:25;;;;;;;5.17;2.60;;;11.40;99.90;;;;;;5051615;28;20033;-55
2023/06/03 03:58:55;;;;;;;7.77;2.80;;;11.40;99.90;;;;;;5033673;28;20032;-53
2023/06/03 04:01:28;;;;;;;5.57;2.70;;;11.40;99.90;;;;;;5033163;28;20394;-56
2023/06/03 04:04:12;;;;;;;5.33;2.60;;;11.50;99.90;;;;;;5033720;28;20082;-52
2023/06/03 04:06:39;;;;;;;6.93;2.00;;;11.40;99.90;;;;;;5033381;28;20467;-54
2023/06/03 04:09:07;;;;;;;3.47;1.80;;;11.50;99.90;;;;;;5033320;28;20037;-57
2023/06/03 04:11:43;;;;;;;4.33;2.27;;;11.50;99.90;;;;;;5050930;28;20032;-56
2023/06/03 04:14:14;;;;;;;4.20;2.00;;;11.50;99.90;;;;;;5033264;28;20112;-56
2023/06/03 04:17:02;;;;;;;2.60;1.63;;;11.60;99.90;;;;;;5033568;28;20045;-56
2023/06/03 04:19:41;;;;;;;4.37;2.27;;;11.60;99.90;;;;;;5032536;28;20029;-57
2023/06/03 04:22:20;;;;;;;5.30;2.30;;;11.50;99.90;;;;;;5032890;28;20629;-55
2023/06/03 04:24:46;;;;;;;6.50;2.40;;;11.50;99.90;;;;;;5033159;28;20033;-54
2023/06/03 04:27:12;;;;;;;5.47;2.40;;;11.60;99.90;;;;;;5033308;28;20477;-56
2023/06/03 04:29:39;;;;;;;5.30;1.97;;;11.60;99.90;;;;;;5033350;28;20060;-56
2023/06/03 04:32:05;;;;;;;4.77;1.90;;;11.60;99.90;;;;;;5032981;28;20025;-52
2023/06/03 04:34:31;;;;;;;6.97;2.23;;;11.60;99.90;;;;;;5050771;28;20086;-55
2023/06/03 04:36:59;;;;;;;3.80;1.73;;;11.60;99.90;;;;;;5032963;28;20021;-56
2023/06/03 04:39:25;;;;;;;3.87;1.77;;;11.70;99.90;;;;;;5050738;28;20060;-55
2023/06/03 04:41:55;;;;;;;5.40;1.90;;;11.70;99.90;;;;;;5032698;28;20090;-55
2023/06/03 04:44:21;;;;;;;5.73;2.10;;;11.80;99.90;;;;;;5032865;28;20444;-52
2023/06/03 04:46:49;;;;;;;6.47;2.03;;;11.80;99.90;;;;;;5032619;28;20063;-55
2023/06/03 04:49:15;;;;;;;4.03;1.83;;;11.80;99.90;;;;;;5032641;28;20025;-50
2023/06/03 04:51:42;;;;;;;3.30;1.60;;;11.80;99.90;;;;;;5032338;28;20029;-55
2023/06/03 04:54:10;;;;;;;4.05;1.73;;;11.90;99.90;;;;;;5032684;28;20032;-56
2023/06/03 04:56:40;;;;;;;;;;;11.90;99.90;;;;;;5033103;28;20025;-54
2023/06/03 04:59:06;;;;;;;2.93;1.53;;;12.00;99.90;;;;;;5032621;28;20040;-53
2023/06/03 05:01:48;;;;;;;4.07;1.70;;;12.00;99.90;;;;;;5032284;28;20029;-53
2023/06/03 05:04:19;;;;;;;5.13;1.57;;;12.00;99.90;;;;;;5032454;28;20168;-56
2023/06/03 05:06:47;;;;;;;3.13;1.40;;;12.10;99.90;;;;;;5032434;28;20319;-54
2023/06/03 05:09:13;;;;;;;3.77;1.50;;;12.10;99.90;;;;;;5032434;28;20040;-56
2023/06/03 05:11:42;;;;;;;5.27;1.60;;;12.10;99.90;;;;;;5032206;28;20116;-52
2023/06/03 05:14:08;;;;;;;2.03;1.27;;;12.20;99.90;;;;;;5032286;28;20128;-55
2023/06/03 05:16:35;;;;;;;6.07;1.47;;;12.20;99.90;;;;;;5032107;28;20029;-55
2023/06/03 05:19:01;;;;;;;2.53;1.17;;;12.20;99.90;;;;;;5032443;28;20033;-53
2023/06/03 05:21:28;;;;;;;3.80;1.30;;;12.30;99.90;;;;;;5032200;28;20033;-51
2023/06/03 05:23:56;;;;;;;2.27;1.20;;;12.40;99.90;;;;;;5050231;28;20567;-55
2023/06/03 05:26:22;;;;;;;3.63;1.50;;;12.40;99.90;;;;;;5032076;28;20040;-52
2023/06/03 05:28:48;;;;;;;1.37;0.87;;;12.50;99.90;;;;;;5032419;28;20033;-55
2023/06/03 05:31:15;;;;;;;7.30;2.07;;;12.50;99.90;;;;;;5033967;28;20029;-53
2023/06/03 05:33:41;;;;;;;2.53;1.23;;;12.60;99.90;;;;;;5054072;28;20055;-51
2023/06/03 05:36:12;;;;;;;3.90;1.20;;;12.70;99.90;;;;;;5036007;28;20382;-53
2023/06/03 05:38:38;;;;;;;5.72;1.48;;;12.80;99.90;;;;;;5036207;28;20044;-53
2023/06/03 05:41:06;;;;;;;6.00;1.53;;;12.80;99.90;;;;;;5035982;28;20271;-52
2023/06/03 05:43:33;;;;;;;3.33;1.33;;;12.90;99.90;;;;;;5035990;28;20028;-55
2023/06/03 05:46:00;;;;;;;2.58;1.40;;;13.00;99.90;;;;;;5035810;28;20108;-54
2023/06/03 05:48:26;;;;;;;3.13;0.95;;;13.00;99.90;;;;;;5053783;28;20111;-56
2023/06/03 05:50:53;;;;;;;3.15;1.40;;;13.10;99.90;;;;;;5035371;28;20108;-56
2023/06/03 05:53:23;;;;;;;2.22;0.95;;;13.20;99.90;;;;;;5035730;28;20069;-54
2023/06/03 05:55:50;;;;;;;3.85;1.20;;;13.30;99.90;;;;;;5035535;28;20036;-53
2023/06/03 05:58:17;;;;;;;3.85;1.63;;;13.40;99.90;;;;;;5035533;28;20116;-52
2023/06/03 06:00:44;;;;;;;2.42;1.02;;;13.40;99.90;;;;;;5035517;28;20025;-52
2023/06/03 06:03:12;;;;;;;4.00;1.38;;;13.50;99.90;;;;;;5035465;28;20033;-53
2023/06/03 06:05:38;;;;;;;2.67;1.17;;;13.60;99.90;;;;;;5035208;28;20037;-53
2023/06/03 06:08:03;;;;;;;3.47;1.10;;;13.70;99.90;;;;;;5053512;28;20033;-53
2023/06/03 06:10:30;;;;;;;3.08;1.02;;;13.70;99.90;;;;;;5035362;28;20049;-52
2023/06/03 06:12:55;;;;;;;2.22;0.90;;;13.80;99.90;;;;;;5035282;28;20029;-54
2023/06/03 06:15:22;;;;;;;4.45;1.20;;;13.90;99.70;;;;;;5035206;28;20094;-51
2023/06/03 06:17:48;;;;;;;3.00;1.20;;;14.00;99.70;;;;;;5053236;28;20497;-56
2023/06/03 06:20:14;;;;;;;2.67;1.20;;;14.10;99.30;;;;;;5035244;28;20064;-52
2023/06/03 06:22:41;;;;;;;3.47;1.15;;;14.30;98.60;;;;;;5034880;28;20033;-51
2023/06/03 06:25:08;;;;;;;2.67;1.00;;;14.40;98.90;;;;;;5034854;28;20233;-54
2023/06/03 06:27:34;;;;;;;2.25;0.98;;;14.40;97.70;;;;;;5035057;28;20040;-51
2023/06/03 06:30:02;;;;;;;6.90;1.58;;;14.60;97.60;;;;;;5052798;28;20029;-57
2023/06/03 06:32:30;;;;;;;3.08;1.13;;;14.60;96.80;;;;;;5035078;28;20447;-56
2023/06/03 06:34:56;;;;;;;3.20;1.10;;;14.70;97.00;;;;;;5034898;28;20052;-57
2023/06/03 06:37:22;;;;;;;2.85;1.25;;;14.80;96.10;;;;;;5034986;28;20029;-55
2023/06/03 06:39:57;;;;;;;1.58;1.02;;;14.90;96.20;;;;;;5052813;28;20037;-53
2023/06/03 06:42:40;;;;;;;2.75;0.88;;;15.10;95.30;;;;;;5033847;28;20036;-56
2023/06/03 06:45:23;;;;;;;1.92;1.08;;;15.20;95.00;;;;;;5019771;28;20025;-56
2023/06/03 06:47:52;;;;;;;2.63;1.08;;;15.20;95.10;;;;;;5034852;28;20564;-56
2023/06/03 06:50:33;;;;;;;3.40;0.80;;;15.30;94.40;;;;;;5052552;28;20036;-55
2023/06/03 06:53:00;;;;;;;3.17;1.10;;;15.40;95.50;;;;;;5034637;28;20474;-51
2023/06/03 06:55:42;;;;;;;4.38;1.00;;;15.50;94.00;;;;;;5034337;28;20024;-54
2023/06/03 06:58:11;;;;;;;1.08;0.85;;;15.70;93.90;;;;;;5034881;28;20032;-54
2023/06/03 07:00:38;;;;;;;2.38;1.00;;;15.70;93.50;;;;;;5034719;28;20033;-52
2023/06/03 07:03:08;;;;;;;1.90;0.80;;;15.80;94.20;;;;;;5034786;28;20316;-54
2023/06/03 07:05:33;;;;;;;4.57;1.15;;;15.90;93.60;;;;;;5034708;28;20111;-54
2023/06/03 07:08:00;;;;;;;1.70;0.90;;;16.10;94.00;;;;;;5034503;28;20495;-53
2023/06/03 07:10:26;;;;;;;2.03;0.95;;;16.10;93.20;;;;;;5034262;28;20029;-55
2023/06/03 07:12:53;;;;;;;11.18;4.60;;;16.30;94.20;;;;;;5034190;28;20025;-53
2023/06/03 07:15:20;;;;;;;2.50;1.48;;;16.50;92.60;;;;;;5034122;28;20036;-53
2023/06/03 07:17:57;;;;;;;3.67;1.65;;;16.60;92.50;;;;;;5034375;28;20501;-54
2023/06/03 07:20:31;;;;;;;1.75;1.00;;;16.70;92.20;;;;;;5034094;28;20136;-54
2023/06/03 07:22:57;;;;;;;3.20;1.15;;;16.80;92.60;;;;;;5034319;28;20264;-53
2023/06/03 07:25:33;;;;;;;3.00;1.10;;;17.00;91.80;;;;;;5034144;28;20057;-52
2023/06/03 07:27:59;;;;;;;1.65;0.85;;;17.10;90.70;;;;;;5034381;28;20041;-56
2023/06/03 07:30:26;;;;;;;1.52;0.77;;;17.40;91.70;;;;;;5052064;28;20389;-55
2023/06/03 07:32:59;;;;;;;3.63;1.25;;;17.60;90.70;;;;;;5052027;28;20119;-52
2023/06/03 07:35:25;;;;;;;5.70;0.90;;;17.70;91.10;;;;;;5034356;28;20056;-52
2023/06/03 07:37:51;;;;;;;5.88;0.90;;;17.60;90.40;;;;;;5051984;28;20027;-54
2023/06/03 07:40:17;;;;;;;1.67;0.80;;;17.60;90.10;;;;;;5051743;28;20096;-55
2023/06/03 07:42:47;;;;;;;2.03;0.90;;;17.60;90.40;;;;;;5034176;28;20486;-55
2023/06/03 07:45:14;;;;;;;0.88;0.60;;;17.70;89.20;;;;;;5033726;28;20032;-57
2023/06/03 07:47:40;;;;;;;2.10;1.08;;;17.80;89.10;;;;;;5051819;28;20041;-55
2023/06/03 07:50:36;;;;;;;1.90;0.80;;;17.80;90.00;;;;;;5051464;28;20029;-51
2023/06/03 07:53:03;;;;;;;2.97;0.90;;;17.80;90.30;;;;;;5038983;28;20576;-51
2023/06/03 07:55:43;;;;;;;2.65;0.88;;;17.80;88.20;;;;;;5051324;28;20027;-50
2023/06/03 07:58:14;;;;;;;1.42;0.50;;;17.80;89.90;;;;;;5051547;28;20021;-54
2023/06/03 08:00:44;;;;;;;2.17;0.85;;;17.80;87.40;;;;;;5051192;28;20035;-52
2023/06/03 08:03:18;;;;;;;4.28;0.80;;;17.90;90.70;;;;;;5051174;28;20036;-55
2023/06/03 08:05:47;;;;;;;1.65;0.82;;;17.90;87.40;;;;;;5051198;28;20447;-52
2023/06/03 08:08:16;;;;;;;2.08;0.90;;;18.00;87.30;;;;;;5051198;28;20028;-54
2023/06/03 08:10:44;;;;;;;;;;;18.00;86.50;;;;;;5051603;28;20049;-52
2023/06/03 08:13:12;;;;;;;2.27;0.93;;;18.10;87.70;;;;;;5051017;28;19999;-53
2023/06/03 08:15:39;;;;;;;4.10;2.20;;;18.10;87.90;;;;;;5050683;28;20460;-54
2023/06/03 08:18:09;;;;;;;2.83;0.68;;;18.20;86.10;;;;;;5051014;28;20465;-52
2023/06/03 08:20:36;;;;;;;2.55;0.80;;;18.20;87.10;;;;;;5050623;28;20158;-50
2023/06/03 08:23:03;;;;;;;5.05;2.33;;;18.20;86.80;;;;;;5032965;28;20055;-54
2023/06/03 08:25:28;;;;;;;2.15;1.08;;;18.20;84.60;;;;;;5050749;28;20039;-54
2023/06/03 08:27:54;;;;;;;1.45;0.60;;;18.40;86.50;;;;;;5050965;28;20036;-51
2023/06/03 08:30:21;;;;;;;2.38;0.80;;;18.50;86.80;;;;;;5050513;28;20116;-57
2023/06/03 08:32:49;;;;;;;3.45;1.25;;;18.60;83.60;;;;;;5032822;28;20025;-51
2023/06/03 08:35:21;;;;;;;2.10;1.10;;;18.60;83.20;;;;;;5050690;28;20025;-56
2023/06/03 08:37:47;;;;;;;6.00;2.10;;;18.60;84.40;;;;;;5050841;28;20037;-53
2023/06/03 08:40:14;;;;;;;1.33;0.80;;;18.70;86.10;;;;;;5050547;28;20068;-56
2023/06/03 08:42:45;;;;;;;2.08;0.77;;;18.70;81.30;;;;;;5050503;28;20443;-54
2023/06/03 08:45:12;;;;;;;2.72;0.80;;;18.80;81.70;;;;;;5050417;28;20033;-52
2023/06/03 08:47:59;;;;;;;3.63;0.95;;;18.90;80.70;;;;;;5050840;28;20428;-56
2023/06/03 08:50:27;;;;;;;3.15;0.70;;;18.80;79.60;;;;;;5050290;28;20056;-55
2023/06/03 08:52:53;;;;;;;2.10;0.88;;;18.90;83.40;;;;;;5050552;28;20040;-58
2023/06/03 08:55:20;;;;;;;2.25;1.00;;;19.00;84.30;;;;;;5050225;28;20029;-56
2023/06/03 08:58:14;;;;;;;2.72;1.20;;;19.10;83.20;;;;;;5050679;28;20419;-57
2023/06/03 09:00:42;;;;;;;1.15;0.70;;;19.20;82.40;;;;;;5042156;28;20043;-57
2023/06/03 09:03:11;;;;;;;2.47;0.70;;;19.20;78.50;;;;;;5050461;28;20151;-57
2023/06/03 09:05:38;;;;;;;1.80;0.60;;;19.30;80.40;;;;;;5049606;28;20080;-52
2023/06/03 09:08:05;;;;;;;2.30;0.52;;;19.40;77.50;;;;;;5050807;28;20277;-54
2023/06/03 09:10:32;;;;;;;2.08;0.65;;;19.40;78.40;;;;;;5050480;28;20496;-55
2023/06/03 09:12:58;;;;;;;2.65;1.50;;;19.40;81.10;;;;;;5050360;28;20140;-56
2023/06/03 09:15:25;;;;;;;3.45;1.00;;;19.40;77.60;;;;;;5050136;28;20393;-56
2023/06/03 09:17:51;;;;;;;2.42;0.80;;;19.50;76.80;;;;;;5050778;28;20025;-55
2023/06/03 09:20:17;;;;;;;1.48;0.82;;;19.50;76.80;;;;;;5050098;28;20068;-55
2023/06/03 09:22:46;;;;;;;2.67;0.90;;;19.60;78.50;;;;;;5050095;28;20529;-55
2023/06/03 09:25:13;;;;;;;2.65;0.80;;;19.60;80.40;;;;;;5050267;28;20119;-57
2023/06/03 09:27:40;;;;;;;1.40;0.80;;;19.50;76.50;;;;;;5050311;28;20037;-54
2023/06/03 09:30:06;;;;;;;1.92;0.60;;;19.50;76.80;;;;;;5049993;28;20033;-57
2023/06/03 09:32:35;;;;;;;1.80;0.70;;;19.60;75.40;;;;;;5050097;28;20066;-57
2023/06/03 09:35:04;;;;;;;;;;;19.60;76.40;;;;;;5050377;28;20033;-55
2023/06/03 09:37:31;;;;;;;5.63;2.85;;;19.70;77.10;;;;;;5050383;28;19932;-55
2023/06/03 09:39:57;;;;;;;2.58;0.88;;;19.80;76.30;;;;;;5050067;28;20110;-55
2023/06/03 09:42:23;;;;;;;2.72;0.75;;;19.80;77.80;;;;;;5050025;28;20116;-57
2023/06/03 09:44:49;;;;;;;1.30;0.70;;;19.90;75.10;;;;;;5049898;28;20504;-57
2023/06/03 09:47:16;;;;;;;0.98;0.60;;;19.90;73.30;;;;;;5050086;28;20374;-56
2023/06/03 09:50:05;;;;;;;4.13;1.45;;;20.00;77.20;;;;;;5050048;28;20044;-57
2023/06/03 09:52:35;;;;;;;3.83;1.35;;;20.00;73.40;;;;;;5049930;28;20037;-56
2023/06/03 09:55:06;;;;;;;4.10;1.83;;;20.10;72.60;;;;;;5050204;28;20017;-56
2023/06/03 09:57:32;;;;;;;1.90;1.02;;;20.00;74.20;;;;;;5050056;28;20025;-56
2023/06/03 10:00:11;;;;;;;2.08;0.80;;;20.10;76.40;;;;;;5049980;28;20071;-55
2023/06/03 10:02:45;;;;;;;1.80;1.05;;;20.20;76.50;;;;;;5049958;28;20025;-55
2023/06/03 10:05:25;;;;;;;1.27;0.73;;;20.20;74.10;;;;;;5049858;28;20400;-57
2023/06/03 10:07:51;;;;;;;2.80;1.00;;;20.30;76.20;;;;;;5049941;28;20111;-56
2023/06/03 10:10:17;;;;;;;2.58;1.40;;;20.20;71.00;;;;;;5049697;28;20512;-56
2023/06/03 10:12:44;;;;;;;1.67;0.80;;;20.20;73.00;;;;;;5049689;28;20029;-56
2023/06/03 10:15:10;;;;;;;2.13;1.13;;;20.20;72.60;;;;;;5049825;28;20037;-54
2023/06/03 10:17:45;;;;;;;5.68;2.47;;;20.20;71.40;;;;;;5050547;28;20032;-56
2023/06/03 10:20:11;;;;;;;3.70;1.20;;;20.30;71.40;;;;;;5053457;28;20056;-57
2023/06/03 10:22:42;;;;;;;3.67;1.30;;;20.30;71.40;;;;;;5053180;28;20696;-56
2023/06/03 10:25:08;;;;;;;2.10;1.05;;;20.40;70.90;;;;;;5053490;28;20180;-57
2023/06/03 10:27:36;;;;;;;3.45;0.90;;;20.50;69.20;;;;;;5053463;28;20466;-56
2023/06/03 10:30:02;;;;;;;1.13;0.70;;;20.40;68.70;;;;;;5053363;28;20076;-55
2023/06/03 10:32:29;;;;;;;1.27;0.80;;;20.40;70.30;;;;;;5035254;28;20083;-57
2023/06/03 10:34:59;;;;;;;2.90;1.30;;;20.50;69.30;;;;;;5053124;28;20103;-56
2023/06/03 10:37:25;;;;;;;4.18;1.33;;;20.60;72.00;;;;;;5053198;28;20025;-56
2023/06/03 10:39:53;;;;;;;3.08;0.95;;;20.60;70.40;;;;;;5053370;28;20444;-54
2023/06/03 10:42:20;;;;;;;1.42;0.75;;;20.50;68.10;;;;;;5052757;28;20074;-55
2023/06/03 10:44:45;;;;;;;2.30;0.95;;;20.60;69.00;;;;;;5053150;28;20074;-54
2023/06/03 10:47:27;;;;;;;1.55;0.90;;;20.60;67.60;;;;;;5052984;28;20127;-56
2023/06/03 10:50:02;;;;;;;1.48;0.68;;;20.60;71.70;;;;;;5052799;28;20453;-54
2023/06/03 10:52:37;;;;;;;7.03;1.33;;;20.80;68.20;;;;;;5052868;28;20048;-57
2023/06/03 10:55:13;;;;;;;1.20;0.55;;;20.90;68.30;;;;;;5052604;28;20111;-57
2023/06/03 10:57:48;;;;;;;1.77;0.93;;;20.90;68.80;;;;;;5052621;28;20044;-55
2023/06/03 11:00:52;;;;;;;8.95;3.47;;;20.90;67.80;;;;;;5052370;28;20064;-54
2023/06/03 11:03:18;;;;;;;1.83;0.90;;;20.80;66.70;;;;;;5052640;28;20025;-55
2023/06/03 11:05:45;;;;;;;1.85;0.77;;;20.70;67.00;;;;;;5052538;28;20087;-54
2023/06/03 11:08:11;;;;;;;1.92;0.90;;;20.70;68.30;;;;;;5052683;28;20037;-56
2023/06/03 11:10:37;;;;;;;2.42;0.63;;;20.60;68.10;;;;;;5052071;28;20432;-57
2023/06/03 11:13:05;;;;;;;3.05;1.13;;;20.70;69.20;;;;;;5052468;28;20079;-53
2023/06/03 11:15:50;;;;;;;;;;;20.80;67.70;;;;;;5053117;28;20040;-57
2023/06/03 11:18:16;;;;;;;1.95;0.90;;;20.80;68.50;;;;;;5052665;28;20318;-55
2023/06/03 11:20:42;;;;;;;1.67;0.90;;;20.90;67.60;;;;;;5052045;28;20033;-57
2023/06/03 11:23:08;;;;;;;2.85;0.90;;;21.00;68.50;;;;;;5052287;28;20044;-56
2023/06/03 11:25:33;;;;;;;2.33;1.33;;;21.00;66.40;;;;;;5052026;28;20033;-57
2023/06/03 11:28:34;;;;;;;2.65;0.90;;;21.00;67.60;;;;;;5051493;28;20140;-57
2023/06/03 11:31:02;;;;;;;3.05;1.30;;;21.00;67.40;;;;;;5051535;28;20581;-54
2023/06/03 11:33:28;;;;;;;2.42;1.10;;;20.90;67.60;;;;;;5051933;28;20047;-55
2023/06/03 11:35:53;;;;;;;3.97;1.00;;;21.00;67.50;;;;;;5051960;28;20033;-57
2023/06/03 11:38:58;;;;;;;1.50;1.00;;;21.10;66.70;;;;;;5052107;28;20095;-56
2023/06/03 11:42:01;;;;;;;1.95;0.60;;;21.00;64.60;;;;;;5051345;28;20409;-57
2023/06/03 11:44:27;;;;;;;2.58;1.30;;;21.00;67.00;;;;;;5051659;28;20028;-55
2023/06/03 11:46:53;;;;;;;2.25;0.77;;;21.00;66.20;;;;;;5051402;28;20091;-54
2023/06/03 11:49:22;;;;;;;2.97;1.02;;;21.10;67.70;;;;;;5051684;28;20036;-54
2023/06/03 11:51:52;;;;;;;3.95;2.30;;;21.20;66.10;;;;;;5051084;28;20044;-57
2023/06/03 11:54:20;;;;;;;2.40;1.40;;;21.20;65.40;;;;;;5051366;28;20029;-55
2023/06/03 11:56:54;;;;;;;2.80;1.30;;;21.30;65.30;;;;;;5033362;28;20033;-57
2023/06/03 11:59:25;;;;;;;1.90;0.88;;;21.20;64.90;;;;;;5051375;28;20039;-56
2023/06/03 12:01:58;;;;;;;2.90;1.10;;;21.30;66.00;;;;;;5051108;28;20029;-57
2023/06/03 12:04:24;;;;;;;1.92;0.85;;;21.30;65.10;;;;;;5051348;28;20497;-55
2023/06/03 12:06:50;;;;;;;1.98;0.90;;;21.30;64.00;;;;;;5051096;28;20481;-57
2023/06/03 12:09:16;;;;;;;1.55;0.80;;;21.30;64.40;;;;;;5051478;28;20024;-57
2023/06/03 12:11:43;;;;;;;2.33;1.05;;;21.30;65.10;;;;;;5050870;28;20037;-54
2023/06/03 12:14:10;;;;;;;4.70;1.95;;;21.40;63.30;;;;;;5051146;28;20120;-57
2023/06/03 12:16:37;;;;;;;2.08;0.90;;;21.50;63.70;;;;;;5033229;28;20056;-55
2023/06/03 12:19:05;;;;;;;4.22;1.35;;;21.50;63.60;;;;;;5051237;28;20033;-55
2023/06/03 12:21:32;;;;;;;2.45;1.05;;;21.50;64.60;;;;;;5050752;28;20095;-56
2023/06/03 12:23:58;;;;;;;2.20;1.10;;;21.50;65.20;;;;;;5051077;28;20040;-56
2023/06/03 12:26:25;;;;;;;2.28;0.82;;;21.60;64.40;;;;;;5050637;28;20032;-57
2023/06/03 12:28:52;;;;;;;2.15;0.98;;;21.60;64.40;;;;;;5051094;28;20033;-55
2023/06/03 12:31:18;;;;;;;3.85;1.40;;;21.60;63.90;;;;;;5050805;28;20421;-56
2023/06/03 12:33:45;;;;;;;2.78;1.00;;;21.80;62.50;;;;;;5050831;28;20029;-52
2023/06/03 12:36:12;;;;;;;3.00;1.25;;;21.90;62.20;;;;;;5050637;28;20067;-55
2023/06/03 12:38:57;;;;;;;3.20;1.40;;;22.10;63.10;;;;;;5050927;28;20043;-52
2023/06/03 12:41:24;;;;;;;2.00;1.23;;;22.10;63.90;;;;;;5049707;28;20040;-55
2023/06/03 12:44:09;;;;;;;7.10;1.20;;;22.00;62.20;;;;;;5050635;28;20041;-55
2023/06/03 12:46:34;;;;;;;3.08;1.08;;;21.90;61.50;;;;;;5051007;28;20232;-54
2023/06/03 12:49:16;;;;;;;1.60;1.00;;;21.80;61.60;;;;;;5050578;28;20115;-50
2023/06/03 12:51:42;;;;;;;2.47;1.20;;;21.70;61.40;;;;;;5050395;28;20493;-56
2023/06/03 12:54:08;;;;;;;2.92;0.80;;;21.60;61.20;;;;;;5050972;28;20089;-56
2023/06/03 12:56:34;;;;;;;2.45;0.82;;;21.70;61.00;;;;;;5050984;28;20055;-55
2023/06/03 12:59:00;;;;;;;1.95;0.93;;;21.70;60.80;;;;;;5050735;28;20096;-55